This is the latest recevied weather packets stored in our database for station/object EFHKFMI. If no packets are shown the sender has not sent any weather packets the latest 10 day(s).
| Time | Temp. | Humidity | Pressure | Rain* | Wind** | Luminosity | Snow |
|---|---|---|---|---|---|---|---|
| 1777566413 | 14.44° C | 55% | 1019.7 hPa | 0 mm | - | - | - |
| 1777565212 | 14.44° C | 56% | 1019.5 hPa | 0 mm | - | - | - |
| 1777564013 | 13.89° C | 55% | 1019.6 hPa | 0 mm | - | - | - |
| 1777562812 | 13.89° C | 57% | 1019.6 hPa | 0 mm | - | - | - |
| 1777561612 | 13.89° C | 56% | 1019.6 hPa | 0 mm | - | - | - |
| 1777560412 | 15.56° C | 48% | 1019.6 hPa | 0 mm | - | - | - |
| 1777559212 | 15° C | 49% | 1019.7 hPa | 0 mm | - | - | - |
| 1777558012 | 15° C | 49% | 1019.8 hPa | 0 mm | - | - | - |
| 1777556812 | 15° C | 49% | 1019.9 hPa | 0 mm | - | - | - |
| 1777555612 | 14.44° C | 50% | 1019.9 hPa | 0 mm | - | - | - |
| 1777554412 | 14.44° C | 51% | 1020.1 hPa | 0 mm | - | - | - |
| 1777553212 | 13.89° C | 53% | 1020.2 hPa | 0 mm | - | - | - |
| 1777552012 | 13.33° C | 54% | 1020.3 hPa | 0 mm | - | - | - |
| 1777550812 | 13.89° C | 53% | 1020.5 hPa | 0 mm | - | - | - |
| 1777549611 | 13.33° C | 53% | 1020.4 hPa | 0 mm | - | - | - |
| 1777548411 | 12.78° C | 55% | 1020.6 hPa | 0 mm | - | - | - |
| 1777547211 | 12.78° C | 57% | 1020.6 hPa | 0 mm | - | - | - |
| 1777546011 | 12.78° C | 56% | 1020.6 hPa | 0 mm | - | - | - |
| 1777544812 | 11.67° C | 60% | 1020.8 hPa | 0 mm | - | - | - |
| 1777543611 | 12.78° C | 56% | 1020.8 hPa | 0 mm | - | - | - |
| 1777542411 | 11.11° C | 62% | 1021 hPa | 0 mm | - | - | - |
| 1777541211 | 10.56° C | 68% | 1021.2 hPa | 0 mm | - | - | - |
| 1777540011 | 8.89° C | 74% | 1021.2 hPa | 0 mm | - | - | - |
| 1777538811 | 7.78° C | 78% | 1021.3 hPa | 0 mm | - | - | - |
| 1777537611 | 7.22° C | 79% | 1021.6 hPa | 0 mm | - | - | - |
* Rain latest hour (hover to see other rain measurements)
** Current wind speed in m/s (hover to see current wind gust speed)